sensor_id;sensor_type;location;lat;lon;timestamp;pressure;altitude;pressure_sealevel;temperature;humidity
60871;BME280;46714;50.118;14.462;2022-10-26T00:03:32;99263.97;;;8.43;100.00
60871;BME280;46714;50.118;14.462;2022-10-26T00:06:06;99259.59;;;8.42;100.00
60871;BME280;46714;50.118;14.462;2022-10-26T00:08:42;99260.41;;;8.42;100.00
60871;BME280;46714;50.118;14.462;2022-10-26T00:11:08;99265.19;;;8.40;100.00
60871;BME280;46714;50.118;14.462;2022-10-26T00:13:35;99260.78;;;8.39;100.00
60871;BME280;46714;50.118;14.462;2022-10-26T00:16:06;99271.84;;;8.37;100.00
60871;BME280;46714;50.118;14.462;2022-10-26T00:18:33;99279.31;;;8.35;100.00
60871;BME280;46714;50.118;14.462;2022-10-26T00:21:02;99279.13;;;8.37;100.00
60871;BME280;46714;50.118;14.462;2022-10-26T00:23:28;99269.13;;;8.37;100.00
60871;BME280;46714;50.118;14.462;2022-10-26T00:25:54;99268.56;;;8.42;100.00
60871;BME280;46714;50.118;14.462;2022-10-26T00:28:21;99270.88;;;8.45;100.00
60871;BME280;46714;50.118;14.462;2022-10-26T00:30:48;99268.41;;;8.50;100.00
60871;BME280;46714;50.118;14.462;2022-10-26T00:33:14;99275.50;;;8.51;100.00
60871;BME280;46714;50.118;14.462;2022-10-26T00:35:39;99285.13;;;8.54;100.00
60871;BME280;46714;50.118;14.462;2022-10-26T00:38:05;99282.03;;;8.57;100.00
60871;BME280;46714;50.118;14.462;2022-10-26T00:40:33;99279.97;;;8.59;100.00
60871;BME280;46714;50.118;14.462;2022-10-26T00:43:00;99274.31;;;8.60;100.00
60871;BME280;46714;50.118;14.462;2022-10-26T00:45:29;99271.41;;;8.62;100.00
60871;BME280;46714;50.118;14.462;2022-10-26T00:48:02;99273.94;;;8.64;100.00
60871;BME280;46714;50.118;14.462;2022-10-26T00:50:32;99276.66;;;8.64;100.00
60871;BME280;46714;50.118;14.462;2022-10-26T00:53:01;99272.88;;;8.65;100.00
60871;BME280;46714;50.118;14.462;2022-10-26T00:55:36;99273.72;;;8.65;100.00
60871;BME280;46714;50.118;14.462;2022-10-26T00:58:05;99276.66;;;8.64;100.00
60871;BME280;46714;50.118;14.462;2022-10-26T01:00:32;99271.84;;;8.66;100.00
60871;BME280;46714;50.118;14.462;2022-10-26T01:02:59;99272.88;;;8.65;100.00
60871;BME280;46714;50.118;14.462;2022-10-26T01:05:28;99272.06;;;8.64;100.00
60871;BME280;46714;50.118;14.462;2022-10-26T01:07:55;99269.34;;;8.64;100.00
60871;BME280;46714;50.118;14.462;2022-10-26T01:10:21;99270.16;;;8.65;100.00
60871;BME280;46714;50.118;14.462;2022-10-26T01:12:49;99271.41;;;8.62;100.00
60871;BME280;46714;50.118;14.462;2022-10-26T01:15:16;99274.13;;;8.62;100.00
60871;BME280;46714;50.118;14.462;2022-10-26T01:20:38;99259.50;;;8.63;100.00
60871;BME280;46714;50.118;14.462;2022-10-26T01:31:10;99256.78;;;8.63;100.00
60871;BME280;46714;50.118;14.462;2022-10-26T01:36:59;99260.09;;;8.58;100.00
60871;BME280;46714;50.118;14.462;2022-10-26T01:42:03;99253.84;;;8.58;100.00
60871;BME280;46714;50.118;14.462;2022-10-26T01:44:43;99255.09;;;8.55;100.00
60871;BME280;46714;50.118;14.462;2022-10-26T01:47:15;99247.13;;;8.54;100.00
60871;BME280;46714;50.118;14.462;2022-10-26T01:49:44;99249.03;;;8.53;100.00
60871;BME280;46714;50.118;14.462;2022-10-26T01:52:12;99243.16;;;8.50;100.00
60871;BME280;46714;50.118;14.462;2022-10-26T01:54:37;99243.56;;;8.47;100.00
60871;BME280;46714;50.118;14.462;2022-10-26T01:57:04;99243.97;;;8.44;100.00
60871;BME280;46714;50.118;14.462;2022-10-26T01:59:36;99242.47;;;8.41;100.00
60871;BME280;46714;50.118;14.462;2022-10-26T02:05:29;99247.84;;;8.34;100.00
60871;BME280;46714;50.118;14.462;2022-10-26T02:16:19;99242.50;;;8.19;100.00
60871;BME280;46714;50.118;14.462;2022-10-26T02:21:24;99240.59;;;8.13;100.00
60871;BME280;46714;50.118;14.462;2022-10-26T02:23:54;99229.28;;;8.10;100.00
60871;BME280;46714;50.118;14.462;2022-10-26T02:26:23;99234.47;;;8.05;100.00
60871;BME280;46714;50.118;14.462;2022-10-26T02:28:53;99233.19;;;8.01;100.00
60871;BME280;46714;50.118;14.462;2022-10-26T02:31:21;99231.72;;;7.98;100.00
60871;BME280;46714;50.118;14.462;2022-10-26T02:33:49;99225.81;;;7.94;100.00
60871;BME280;46714;50.118;14.462;2022-10-26T02:36:21;99229.78;;;7.92;100.00
60871;BME280;46714;50.118;14.462;2022-10-26T02:38:51;99235.59;;;7.89;100.00
60871;BME280;46714;50.118;14.462;2022-10-26T02:41:19;99231.41;;;7.86;100.00
60871;BME280;46714;50.118;14.462;2022-10-26T02:43:51;99232.44;;;7.85;100.00
60871;BME280;46714;50.118;14.462;2022-10-26T02:46:21;99229.94;;;7.84;100.00
60871;BME280;46714;50.118;14.462;2022-10-26T02:48:49;99230.13;;;7.82;100.00
60871;BME280;46714;50.118;14.462;2022-10-26T02:51:16;99225.75;;;7.81;100.00
60871;BME280;46714;50.118;14.462;2022-10-26T02:53:50;99235.94;;;7.79;100.00
60871;BME280;46714;50.118;14.462;2022-10-26T02:56:29;99235.47;;;7.75;100.00
60871;BME280;46714;50.118;14.462;2022-10-26T02:59:03;99235.03;;;7.72;100.00
60871;BME280;46714;50.118;14.462;2022-10-26T03:01:32;99230.63;;;7.71;100.00
60871;BME280;46714;50.118;14.462;2022-10-26T03:03:58;99235.63;;;7.67;100.00
60871;BME280;46714;50.118;14.462;2022-10-26T03:06:24;99227.69;;;7.66;100.00
60871;BME280;46714;50.118;14.462;2022-10-26T03:08:49;99226.84;;;7.65;100.00
60871;BME280;46714;50.118;14.462;2022-10-26T03:11:15;99225.16;;;7.64;100.00
60871;BME280;46714;50.118;14.462;2022-10-26T03:13:41;99227.44;;;7.61;100.00
60871;BME280;46714;50.118;14.462;2022-10-26T03:16:07;99233.88;;;7.60;100.00
60871;BME280;46714;50.118;14.462;2022-10-26T03:18:32;99225.09;;;7.58;100.00
60871;BME280;46714;50.118;14.462;2022-10-26T03:20:58;99231.16;;;7.60;100.00
60871;BME280;46714;50.118;14.462;2022-10-26T03:23:23;99230.50;;;7.58;100.00
60871;BME280;46714;50.118;14.462;2022-10-26T03:25:48;99221.75;;;7.55;100.00
60871;BME280;46714;50.118;14.462;2022-10-26T03:28:14;99220.06;;;7.54;100.00
60871;BME280;46714;50.118;14.462;2022-10-26T03:30:39;99214.00;;;7.52;100.00
60871;BME280;46714;50.118;14.462;2022-10-26T03:33:05;99218.59;;;7.52;100.00
60871;BME280;46714;50.118;14.462;2022-10-26T03:35:30;99219.59;;;7.51;100.00
60871;BME280;46714;50.118;14.462;2022-10-26T03:37:57;99220.47;;;7.51;100.00
60871;BME280;46714;50.118;14.462;2022-10-26T03:40:22;99219.81;;;7.49;100.00
60871;BME280;46714;50.118;14.462;2022-10-26T03:42:48;99228.78;;;7.50;100.00
60871;BME280;46714;50.118;14.462;2022-10-26T03:45:13;99230.84;;;7.48;100.00
60871;BME280;46714;50.118;14.462;2022-10-26T03:47:42;99236.44;;;7.46;100.00
60871;BME280;46714;50.118;14.462;2022-10-26T03:50:13;99236.44;;;7.46;100.00
60871;BME280;46714;50.118;14.462;2022-10-26T03:52:39;99232.91;;;7.46;100.00
60871;BME280;46714;50.118;14.462;2022-10-26T03:55:05;99235.19;;;7.42;100.00
60871;BME280;46714;50.118;14.462;2022-10-26T03:57:32;99239.72;;;7.42;100.00
60871;BME280;46714;50.118;14.462;2022-10-26T03:59:58;99239.94;;;7.40;100.00
60871;BME280;46714;50.118;14.462;2022-10-26T04:02:23;99249.09;;;7.39;100.00
60871;BME280;46714;50.118;14.462;2022-10-26T04:04:48;99235.34;;;7.41;100.00
60871;BME280;46714;50.118;14.462;2022-10-26T04:07:14;99233.28;;;7.43;100.00
60871;BME280;46714;50.118;14.462;2022-10-26T04:09:39;99234.13;;;7.43;100.00
60871;BME280;46714;50.118;14.462;2022-10-26T04:12:04;99244.97;;;7.43;100.00
60871;BME280;46714;50.118;14.462;2022-10-26T04:14:30;99232.25;;;7.44;100.00
60871;BME280;46714;50.118;14.462;2022-10-26T04:16:55;99238.91;;;7.41;100.00
60871;BME280;46714;50.118;14.462;2022-10-26T04:19:21;99245.34;;;7.40;100.00
60871;BME280;46714;50.118;14.462;2022-10-26T04:21:46;99250.31;;;7.37;100.00
60871;BME280;46714;50.118;14.462;2022-10-26T04:24:12;99264.03;;;7.35;100.00
60871;BME280;46714;50.118;14.462;2022-10-26T04:26:37;99261.31;;;7.35;100.00
60871;BME280;46714;50.118;14.462;2022-10-26T04:29:04;99264.88;;;7.36;100.00
60871;BME280;46714;50.118;14.462;2022-10-26T04:31:31;99267.38;;;7.37;100.00
60871;BME280;46714;50.118;14.462;2022-10-26T04:33:57;99268.03;;;7.39;100.00
60871;BME280;46714;50.118;14.462;2022-10-26T04:36:22;99268.03;;;7.39;100.00
60871;BME280;46714;50.118;14.462;2022-10-26T04:38:48;99269.72;;;7.40;100.00
60871;BME280;46714;50.118;14.462;2022-10-26T04:41:13;99262.44;;;7.41;100.00
60871;BME280;46714;50.118;14.462;2022-10-26T04:43:39;99266.81;;;7.42;100.00
60871;BME280;46714;50.118;14.462;2022-10-26T04:46:04;99255.78;;;7.43;100.00
60871;BME280;46714;50.118;14.462;2022-10-26T04:48:30;99262.88;;;7.44;100.00
60871;BME280;46714;50.118;14.462;2022-10-26T04:50:58;99261.22;;;7.43;100.00
60871;BME280;46714;50.118;14.462;2022-10-26T04:53:24;99251.41;;;7.42;100.00
60871;BME280;46714;50.118;14.462;2022-10-26T04:55:59;99261.22;;;7.43;100.00
60871;BME280;46714;50.118;14.462;2022-10-26T04:58:27;99264.97;;;7.42;100.00
60871;BME280;46714;50.118;14.462;2022-10-26T05:00:53;99262.44;;;7.41;100.00
60871;BME280;46714;50.118;14.462;2022-10-26T05:03:20;99258.25;;;7.38;100.00
60871;BME280;46714;50.118;14.462;2022-10-26T05:05:45;99260.75;;;7.40;100.00
60871;BME280;46714;50.118;14.462;2022-10-26T05:08:14;99266.56;;;7.37;100.00
60871;BME280;46714;50.118;14.462;2022-10-26T05:10:40;99263.19;;;7.34;100.00
60871;BME280;46714;50.118;14.462;2022-10-26T05:13:06;99261.31;;;7.35;100.00
60871;BME280;46714;50.118;14.462;2022-10-26T05:15:31;99266.72;;;7.35;100.00
60871;BME280;46714;50.118;14.462;2022-10-26T05:18:00;99261.31;;;7.35;100.00
60871;BME280;46714;50.118;14.462;2022-10-26T05:20:28;99250.31;;;7.37;100.00
60871;BME280;46714;50.118;14.462;2022-10-26T05:23:28;99259.91;;;7.39;100.00
60871;BME280;46714;50.118;14.462;2022-10-26T05:25:48;99259.91;;;7.39;100.00
60871;BME280;46714;50.118;14.462;2022-10-26T05:28:14;99261.59;;;7.40;100.00
60871;BME280;46714;50.118;14.462;2022-10-26T05:30:41;99255.31;;;7.40;100.00
60871;BME280;46714;50.118;14.462;2022-10-26T05:33:08;99258.91;;;7.40;100.00
60871;BME280;46714;50.118;14.462;2022-10-26T05:35:35;99261.59;;;7.40;100.00
60871;BME280;46714;50.118;14.462;2022-10-26T05:38:16;99264.31;;;7.40;100.00
60871;BME280;46714;50.118;14.462;2022-10-26T05:40:46;99267.03;;;7.40;100.00
60871;BME280;46714;50.118;14.462;2022-10-26T05:43:12;99275.16;;;7.40;100.00
60871;BME280;46714;50.118;14.462;2022-10-26T05:45:38;99278.69;;;7.41;100.00
60871;BME280;46714;50.118;14.462;2022-10-26T05:48:04;99278.69;;;7.41;100.00
60871;BME280;46714;50.118;14.462;2022-10-26T05:50:30;99280.56;;;7.40;100.00
60871;BME280;46714;50.118;14.462;2022-10-26T05:52:55;99280.16;;;7.43;100.00
60871;BME280;46714;50.118;14.462;2022-10-26T05:55:21;99277.94;;;7.47;100.00
60871;BME280;46714;50.118;14.462;2022-10-26T05:57:47;99279.59;;;7.48;100.00
60871;BME280;46714;50.118;14.462;2022-10-26T06:00:17;99286.69;;;7.49;100.00
60871;BME280;46714;50.118;14.462;2022-10-26T06:05:28;99291.91;;;7.50;100.00
60871;BME280;46714;50.118;14.462;2022-10-26T06:08:00;99295.66;;;7.49;100.00
60871;BME280;46714;50.118;14.462;2022-10-26T06:10:28;99300.03;;;7.50;100.00
60871;BME280;46714;50.118;14.462;2022-10-26T06:12:53;99307.78;;;7.53;100.00
60871;BME280;46714;50.118;14.462;2022-10-26T06:15:20;99300.94;;;7.58;100.00
60871;BME280;46714;50.118;14.462;2022-10-26T06:17:53;99296.00;;;7.61;100.00
60871;BME280;46714;50.118;14.462;2022-10-26T06:23:32;99283.53;;;7.67;100.00
60871;BME280;46714;50.118;14.462;2022-10-26T06:26:07;99289.41;;;7.70;100.00
60871;BME280;46714;50.118;14.462;2022-10-26T06:28:52;99296.97;;;7.75;100.00
60871;BME280;46714;50.118;14.462;2022-10-26T06:31:41;99299.94;;;7.80;100.00
60871;BME280;46714;50.118;14.462;2022-10-26T06:34:08;99294.97;;;7.84;100.00
60871;BME280;46714;50.118;14.462;2022-10-26T06:36:36;99302.53;;;7.88;100.00
60871;BME280;46714;50.118;14.462;2022-10-26T06:39:05;99306.50;;;7.92;100.00
60871;BME280;46714;50.118;14.462;2022-10-26T06:41:34;99309.66;;;7.96;100.00
60871;BME280;46714;50.118;14.462;2022-10-26T06:44:01;99304.91;;;7.98;100.00
60871;BME280;46714;50.118;14.462;2022-10-26T06:51:50;99314.16;;;8.10;100.00
60871;BME280;46714;50.118;14.462;2022-10-26T06:54:26;99308.38;;;8.13;100.00
60871;BME280;46714;50.118;14.462;2022-10-26T06:56:54;99310.88;;;8.15;100.00
60871;BME280;46714;50.118;14.462;2022-10-26T06:59:29;99308.44;;;8.20;100.00
60871;BME280;46714;50.118;14.462;2022-10-26T07:02:01;99314.47;;;8.22;100.00
60871;BME280;46714;50.118;14.462;2022-10-26T07:04:26;99320.34;;;8.26;100.00
60871;BME280;46714;50.118;14.462;2022-10-26T07:06:51;99322.66;;;8.29;100.00
60871;BME280;46714;50.118;14.462;2022-10-26T07:09:17;99315.59;;;8.28;100.00
60871;BME280;46714;50.118;14.462;2022-10-26T07:11:42;99319.53;;;8.25;100.00
60871;BME280;46714;50.118;14.462;2022-10-26T07:14:07;99321.59;;;8.23;100.00
60871;BME280;46714;50.118;14.462;2022-10-26T07:16:33;99323.66;;;8.21;100.00
60871;BME280;46714;50.118;14.462;2022-10-26T07:18:58;99326.56;;;8.19;100.00
60871;BME280;46714;50.118;14.462;2022-10-26T07:21:24;99323.47;;;8.23;100.00
60871;BME280;46714;50.118;14.462;2022-10-26T07:23:51;99321.19;;;8.26;100.00
60871;BME280;46714;50.118;14.462;2022-10-26T07:26:19;99317.47;;;8.27;100.00
60871;BME280;46714;50.118;14.462;2022-10-26T07:28:47;99320.41;;;8.32;100.00
60871;BME280;46714;50.118;14.462;2022-10-26T07:31:13;99320.84;;;8.36;100.00
60871;BME280;46714;50.118;14.462;2022-10-26T07:33:38;99327.78;;;8.38;100.00
60871;BME280;46714;50.118;14.462;2022-10-26T07:36:05;99337.56;;;8.39;100.00
60871;BME280;46714;50.118;14.462;2022-10-26T07:38:32;99330.75;;;8.44;100.00
60871;BME280;46714;50.118;14.462;2022-10-26T07:40:58;99342.44;;;8.44;100.00
60871;BME280;46714;50.118;14.462;2022-10-26T07:43:23;99337.47;;;8.48;99.96
60871;BME280;46714;50.118;14.462;2022-10-26T07:45:48;99341.06;;;8.55;100.00
60871;BME280;46714;50.118;14.462;2022-10-26T07:48:15;99343.19;;;8.59;100.00
60871;BME280;46714;50.118;14.462;2022-10-26T07:50:40;99340.91;;;8.63;100.00
60871;BME280;46714;50.118;14.462;2022-10-26T07:53:06;99348.66;;;8.66;100.00
60871;BME280;46714;50.118;14.462;2022-10-26T07:55:31;99341.19;;;8.68;100.00
60871;BME280;46714;50.118;14.462;2022-10-26T07:57:57;99341.59;;;8.72;100.00
60871;BME280;46714;50.118;14.462;2022-10-26T08:00:22;99346.44;;;8.76;99.72
60871;BME280;46714;50.118;14.462;2022-10-26T08:02:48;99347.06;;;8.78;99.30
60871;BME280;46714;50.118;14.462;2022-10-26T08:05:13;99344.41;;;8.85;100.00
60871;BME280;46714;50.118;14.462;2022-10-26T08:07:39;99352.59;;;8.92;100.00
60871;BME280;46714;50.118;14.462;2022-10-26T08:10:09;99351.16;;;8.96;100.00
60871;BME280;46714;50.118;14.462;2022-10-26T08:12:35;99363.53;;;9.05;100.00
60871;BME280;46714;50.118;14.462;2022-10-26T08:15:01;99354.56;;;9.11;99.29
60871;BME280;46714;50.118;14.462;2022-10-26T08:17:27;99356.50;;;9.17;99.00
60871;BME280;46714;50.118;14.462;2022-10-26T08:19:53;99352.13;;;9.23;99.66
60871;BME280;46714;50.118;14.462;2022-10-26T08:22:18;99351.31;;;9.29;98.98
60871;BME280;46714;50.118;14.462;2022-10-26T08:24:44;99356.38;;;9.39;99.32
60871;BME280;46714;50.118;14.462;2022-10-26T08:27:12;99365.00;;;9.49;99.74
60871;BME280;46714;50.118;14.462;2022-10-26T08:29:39;99361.72;;;9.60;99.83
60871;BME280;46714;50.118;14.462;2022-10-26T08:32:05;99366.75;;;9.70;98.24
60871;BME280;46714;50.118;14.462;2022-10-26T08:34:30;99368.03;;;9.81;98.64
60871;BME280;46714;50.118;14.462;2022-10-26T08:36:56;99371.63;;;9.88;98.60
60871;BME280;46714;50.118;14.462;2022-10-26T08:39:21;99369.13;;;9.93;98.56
60871;BME280;46714;50.118;14.462;2022-10-26T08:41:47;99371.66;;;10.01;97.50
60871;BME280;46714;50.118;14.462;2022-10-26T08:44:22;99370.16;;;10.05;97.08
60871;BME280;46714;50.118;14.462;2022-10-26T08:52:25;99367.72;;;10.24;96.37
60871;BME280;46714;50.118;14.462;2022-10-26T08:55:02;99362.28;;;10.31;95.93
60871;BME280;46714;50.118;14.462;2022-10-26T08:57:34;99362.28;;;10.37;96.37
60871;BME280;46714;50.118;14.462;2022-10-26T09:00:24;99370.47;;;10.44;96.39
60871;BME280;46714;50.118;14.462;2022-10-26T09:02:50;99366.91;;;10.50;95.52
60871;BME280;46714;50.118;14.462;2022-10-26T09:05:28;99369.00;;;10.55;95.96
60871;BME280;46714;50.118;14.462;2022-10-26T09:08:19;99375.28;;;10.62;96.10
60871;BME280;46714;50.118;14.462;2022-10-26T09:20:53;99375.91;;;10.90;95.04
60871;BME280;46714;50.118;14.462;2022-10-26T09:24:40;99375.47;;;11.00;94.61
60871;BME280;46714;50.118;14.462;2022-10-26T09:27:46;99376.69;;;11.11;93.74
60871;BME280;46714;50.118;14.462;2022-10-26T09:31:08;99376.66;;;11.24;93.20
60871;BME280;46714;50.118;14.462;2022-10-26T09:34:30;99384.41;;;11.34;92.21
60871;BME280;46714;50.118;14.462;2022-10-26T09:37:54;99392.13;;;11.44;93.20
60871;BME280;46714;50.118;14.462;2022-10-26T09:44:19;99390.34;;;11.63;91.80
60871;BME280;46714;50.118;14.462;2022-10-26T09:47:37;99394.50;;;11.72;91.86
60871;BME280;46714;50.118;14.462;2022-10-26T09:51:13;99392.81;;;11.78;90.33
60871;BME280;46714;50.118;14.462;2022-10-26T09:54:49;99384.41;;;11.79;90.58
60871;BME280;46714;50.118;14.462;2022-10-26T09:58:46;99382.47;;;11.86;90.64
60871;BME280;46714;50.118;14.462;2022-10-26T10:01:20;99387.28;;;11.98;90.14
60871;BME280;46714;50.118;14.462;2022-10-26T10:03:46;99388.53;;;12.02;89.41
60871;BME280;46714;50.118;14.462;2022-10-26T10:06:13;99387.25;;;12.04;89.25
60871;BME280;46714;50.118;14.462;2022-10-26T10:08:44;99383.69;;;12.04;89.11
60871;BME280;46714;50.118;14.462;2022-10-26T10:11:36;99379.47;;;12.08;89.05
60871;BME280;46714;50.118;14.462;2022-10-26T10:14:07;99382.16;;;12.14;88.78
60871;BME280;46714;50.118;14.462;2022-10-26T10:16:39;99375.59;;;12.22;88.63
60871;BME280;46714;50.118;14.462;2022-10-26T10:19:09;99378.28;;;12.29;90.12
60871;BME280;46714;50.118;14.462;2022-10-26T10:21:49;99374.06;;;12.33;89.24
60871;BME280;46714;50.118;14.462;2022-10-26T10:26:56;99372.09;;;12.40;88.54
60871;BME280;46714;50.118;14.462;2022-10-26T10:29:30;99371.81;;;12.48;88.67
60871;BME280;46714;50.118;14.462;2022-10-26T10:31:58;99376.41;;;12.54;88.98
60871;BME280;46714;50.118;14.462;2022-10-26T10:34:25;99375.97;;;12.57;87.97
60871;BME280;46714;50.118;14.462;2022-10-26T10:36:54;99375.72;;;12.59;89.14
60871;BME280;46714;50.118;14.462;2022-10-26T10:39:41;99376.56;;;12.60;88.18
60871;BME280;46714;50.118;14.462;2022-10-26T10:42:16;99376.75;;;12.65;88.26
60871;BME280;46714;50.118;14.462;2022-10-26T10:44:50;99370.22;;;12.66;88.11
60871;BME280;46714;50.118;14.462;2022-10-26T10:47:20;99372.50;;;12.69;88.99
60871;BME280;46714;50.118;14.462;2022-10-26T10:49:56;99367.22;;;12.74;88.99
60871;BME280;46714;50.118;14.462;2022-10-26T10:52:24;99363.41;;;12.75;89.27
60871;BME280;46714;50.118;14.462;2022-10-26T10:55:37;99366.16;;;12.75;90.65
60871;BME280;46714;50.118;14.462;2022-10-26T11:00:29;99364.03;;;12.77;89.81
60871;BME280;46714;50.118;14.462;2022-10-26T11:06:12;99331.47;;;12.75;89.72
60871;BME280;46714;50.118;14.462;2022-10-26T11:14:13;99342.84;;;12.72;90.38
60871;BME280;46714;50.118;14.462;2022-10-26T11:16:58;99344.75;;;12.72;91.78
60871;BME280;46714;50.118;14.462;2022-10-26T11:22:10;99352.78;;;12.67;91.58
60871;BME280;46714;50.118;14.462;2022-10-26T11:24:42;99362.84;;;12.66;90.93
60871;BME280;46714;50.118;14.462;2022-10-26T11:27:38;99354.66;;;12.66;90.32
60871;BME280;46714;50.118;14.462;2022-10-26T11:30:25;99354.91;;;12.65;90.38
60871;BME280;46714;50.118;14.462;2022-10-26T11:32:54;99367.50;;;12.66;89.93
60871;BME280;46714;50.118;14.462;2022-10-26T11:43:22;99387.88;;;12.63;90.59
60871;BME280;46714;50.118;14.462;2022-10-26T11:49:03;99384.94;;;12.65;90.59
60871;BME280;46714;50.118;14.462;2022-10-26T11:54:47;99380.97;;;12.61;90.36
60871;BME280;46714;50.118;14.462;2022-10-26T11:57:17;99374.91;;;12.58;90.62
60871;BME280;46714;50.118;14.462;2022-10-26T11:59:52;99383.72;;;12.61;89.02
60871;BME280;46714;50.118;14.462;2022-10-26T12:02:21;99383.88;;;12.66;89.05
60871;BME280;46714;50.118;14.462;2022-10-26T12:04:53;99390.78;;;12.68;88.68
60871;BME280;46714;50.118;14.462;2022-10-26T12:07:29;99384.50;;;12.68;88.43
60871;BME280;46714;50.118;14.462;2022-10-26T12:09:57;99378.56;;;12.71;89.50
60871;BME280;46714;50.118;14.462;2022-10-26T12:12:33;99378.34;;;12.72;89.19
60871;BME280;46714;50.118;14.462;2022-10-26T12:15:20;99373.72;;;12.73;89.01
60871;BME280;46714;50.118;14.462;2022-10-26T12:17:52;99374.13;;;12.76;88.60
60871;BME280;46714;50.118;14.462;2022-10-26T12:23:26;99381.19;;;12.84;88.36
60871;BME280;46714;50.118;14.462;2022-10-26T12:26:19;99368.75;;;12.88;88.98
60871;BME280;46714;50.118;14.462;2022-10-26T12:31:50;99381.84;;;13.05;88.83
60871;BME280;46714;50.118;14.462;2022-10-26T12:39:25;99378.06;;;13.24;86.17
60871;BME280;46714;50.118;14.462;2022-10-26T12:41:55;99377.59;;;13.27;86.55
60871;BME280;46714;50.118;14.462;2022-10-26T12:44:36;99368.53;;;13.33;85.62
60871;BME280;46714;50.118;14.462;2022-10-26T12:47:05;99370.34;;;13.39;85.31
60871;BME280;46714;50.118;14.462;2022-10-26T13:03:32;99364.63;;;13.59;86.63
60871;BME280;46714;50.118;14.462;2022-10-26T13:08:52;99357.34;;;13.53;87.57
60871;BME280;46714;50.118;14.462;2022-10-26T13:11:31;99356.38;;;13.48;88.04
60871;BME280;46714;50.118;14.462;2022-10-26T13:14:06;99359.56;;;13.45;87.96
60871;BME280;46714;50.118;14.462;2022-10-26T13:16:42;99359.31;;;13.46;88.25
60871;BME280;46714;50.118;14.462;2022-10-26T13:19:25;99357.41;;;13.47;88.45
60871;BME280;46714;50.118;14.462;2022-10-26T13:21:52;99355.28;;;13.49;88.19
60871;BME280;46714;50.118;14.462;2022-10-26T13:24:23;99363.06;;;13.52;88.54
60871;BME280;46714;50.118;14.462;2022-10-26T13:29:29;99373.53;;;13.55;87.79
60871;BME280;46714;50.118;14.462;2022-10-26T13:31:56;99368.66;;;13.57;89.75
60871;BME280;46714;50.118;14.462;2022-10-26T13:34:30;99370.81;;;13.55;88.73
60871;BME280;46714;50.118;14.462;2022-10-26T13:37:10;99372.72;;;13.54;88.17
60871;BME280;46714;50.118;14.462;2022-10-26T13:39:46;99379.00;;;13.55;87.32
60871;BME280;46714;50.118;14.462;2022-10-26T13:42:19;99374.75;;;13.59;87.42
60871;BME280;46714;50.118;14.462;2022-10-26T13:47:30;99382.50;;;13.62;88.35
60871;BME280;46714;50.118;14.462;2022-10-26T13:50:19;99381.44;;;13.63;89.29
60871;BME280;46714;50.118;14.462;2022-10-26T13:52:56;99375.97;;;13.63;87.37
60871;BME280;46714;50.118;14.462;2022-10-26T13:55:26;99373.59;;;13.67;87.80
60871;BME280;46714;50.118;14.462;2022-10-26T14:01:00;99374.19;;;13.69;86.78
60871;BME280;46714;50.118;14.462;2022-10-26T14:03:26;99373.38;;;13.68;87.85
60871;BME280;46714;50.118;14.462;2022-10-26T14:05:51;99380.38;;;13.64;88.20
60871;BME280;46714;50.118;14.462;2022-10-26T14:08:18;99382.34;;;13.57;87.56
60871;BME280;46714;50.118;14.462;2022-10-26T14:10:46;99386.00;;;13.51;87.46
60871;BME280;46714;50.118;14.462;2022-10-26T14:13:17;99387.97;;;13.44;88.57
60871;BME280;46714;50.118;14.462;2022-10-26T14:15:47;99387.59;;;13.40;89.18
60871;BME280;46714;50.118;14.462;2022-10-26T14:18:17;99385.56;;;13.35;88.52
60871;BME280;46714;50.118;14.462;2022-10-26T14:20:48;99393.38;;;13.32;88.43
60871;BME280;46714;50.118;14.462;2022-10-26T14:23:45;99391.91;;;13.29;88.76
60871;BME280;46714;50.118;14.462;2022-10-26T14:28:46;99389.84;;;13.25;90.45
60871;BME280;46714;50.118;14.462;2022-10-26T14:31:27;99386.50;;;13.23;90.39
60871;BME280;46714;50.118;14.462;2022-10-26T14:33:57;99389.28;;;13.16;90.44
60871;BME280;46714;50.118;14.462;2022-10-26T14:39:16;99401.19;;;13.03;90.05
60871;BME280;46714;50.118;14.462;2022-10-26T14:41:43;99402.47;;;13.00;90.90
60871;BME280;46714;50.118;14.462;2022-10-26T14:44:18;99397.88;;;13.01;90.21
60871;BME280;46714;50.118;14.462;2022-10-26T14:46:47;99397.63;;;13.03;90.98
60871;BME280;46714;50.118;14.462;2022-10-26T14:49:24;99412.34;;;13.02;92.11
60871;BME280;46714;50.118;14.462;2022-10-26T14:51:58;99412.34;;;13.02;91.63
60871;BME280;46714;50.118;14.462;2022-10-26T14:54:28;99410.66;;;13.00;92.44
60871;BME280;46714;50.118;14.462;2022-10-26T14:56:56;99416.59;;;12.97;90.79
60871;BME280;46714;50.118;14.462;2022-10-26T15:07:00;99419.66;;;12.83;91.09
60871;BME280;46714;50.118;14.462;2022-10-26T15:09:41;99419.28;;;12.79;90.70
60871;BME280;46714;50.118;14.462;2022-10-26T15:14:54;99430.03;;;12.74;92.80
60871;BME280;46714;50.118;14.462;2022-10-26T15:17:26;99431.09;;;12.73;93.35
60871;BME280;46714;50.118;14.462;2022-10-26T15:20:03;99429.44;;;12.72;93.55
60871;BME280;46714;50.118;14.462;2022-10-26T15:22:30;99423.34;;;12.70;94.07
60871;BME280;46714;50.118;14.462;2022-10-26T15:24:57;99431.53;;;12.70;94.42
60871;BME280;46714;50.118;14.462;2022-10-26T15:27:26;99435.31;;;12.69;95.16
60871;BME280;46714;50.118;14.462;2022-10-26T15:30:06;99439.56;;;12.65;94.23
60871;BME280;46714;50.118;14.462;2022-10-26T15:32:43;99433.91;;;12.60;93.72
60871;BME280;46714;50.118;14.462;2022-10-26T15:37:43;99430.22;;;12.47;94.47
60871;BME280;46714;50.118;14.462;2022-10-26T15:40:10;99432.13;;;12.47;95.07
60871;BME280;46714;50.118;14.462;2022-10-26T15:42:37;99432.97;;;12.47;95.50